createdAt,value
2019-05-15T00:00:13.226Z,6.99
2019-05-15T00:02:41.716Z,6.97
2019-05-15T00:05:10.457Z,7.02
2019-05-15T00:07:39.466Z,6.98
2019-05-15T00:10:08.963Z,6.93
2019-05-15T00:12:39.482Z,6.90
2019-05-15T00:15:09.342Z,6.77
2019-05-15T00:17:39.343Z,6.76
2019-05-15T00:20:09.904Z,6.68
2019-05-15T00:22:39.080Z,6.61
2019-05-15T00:25:09.243Z,6.56
2019-05-15T00:27:38.737Z,6.56
2019-05-15T00:30:09.274Z,6.55
2019-05-15T00:32:39.246Z,6.43
2019-05-15T00:35:09.430Z,6.43
2019-05-15T00:37:38.889Z,6.39
2019-05-15T00:40:08.761Z,6.34
2019-05-15T00:42:38.427Z,6.29
2019-05-15T00:45:09.386Z,6.26
2019-05-15T00:47:39.682Z,6.23
2019-05-15T00:50:09.157Z,6.23
2019-05-15T00:52:39.109Z,6.20
2019-05-15T00:55:08.857Z,6.12
2019-05-15T00:57:39.206Z,6.15
2019-05-15T01:00:09.126Z,6.21
2019-05-15T01:02:38.811Z,6.19
2019-05-15T01:05:08.248Z,6.16
2019-05-15T01:07:39.298Z,6.18
2019-05-15T01:10:10.379Z,6.14
2019-05-15T01:12:38.980Z,6.10
2019-05-15T01:15:09.265Z,6.19
2019-05-15T01:17:39.066Z,6.24
2019-05-15T01:20:08.625Z,6.35
2019-05-15T01:22:39.367Z,6.30
2019-05-15T01:25:08.597Z,6.30
2019-05-15T01:27:38.768Z,6.29
2019-05-15T01:30:09.032Z,6.26
2019-05-15T01:32:39.613Z,6.22
2019-05-15T01:35:09.474Z,6.23
2019-05-15T01:37:39.190Z,6.23
2019-05-15T01:40:09.069Z,6.22
2019-05-15T01:42:38.730Z,6.15
2019-05-15T01:45:08.586Z,6.10
2019-05-15T01:47:38.811Z,6.07
2019-05-15T01:50:09.174Z,6.09
2019-05-15T01:52:39.027Z,6.00
2019-05-15T01:55:09.333Z,5.98
2019-05-15T01:57:38.412Z,5.91
2019-05-15T02:00:09.032Z,5.92
2019-05-15T02:02:39.005Z,5.79
2019-05-15T02:05:09.145Z,5.62
2019-05-15T02:07:39.013Z,5.56
2019-05-15T02:10:09.181Z,5.47
2019-05-15T02:12:38.789Z,5.37
2019-05-15T02:15:08.655Z,5.22
2019-05-15T02:17:39.292Z,5.16
2019-05-15T02:20:08.827Z,5.12
2019-05-15T02:22:41.913Z,5.09
2019-05-15T02:25:08.760Z,5.15
2019-05-15T02:27:39.221Z,5.10
2019-05-15T02:30:17.886Z,5.05
2019-05-15T02:32:39.565Z,5.00
2019-05-15T02:35:09.897Z,4.92
2019-05-15T02:37:40.925Z,4.83
2019-05-15T02:40:29.423Z,4.72
2019-05-15T02:42:59.163Z,4.67
2019-05-15T02:45:30.138Z,4.63
2019-05-15T02:47:59.675Z,4.60
2019-05-15T02:50:29.087Z,4.52
2019-05-15T02:53:00.518Z,4.43
2019-05-15T02:55:29.682Z,4.29
2019-05-15T02:57:59.092Z,4.22
2019-05-15T03:00:37.933Z,4.22
2019-05-15T03:03:00.211Z,4.19
2019-05-15T03:05:29.375Z,3.74
2019-05-15T03:07:59.387Z,4.08
2019-05-15T03:10:29.692Z,4.04
2019-05-15T03:13:00.147Z,4.01
2019-05-15T03:15:29.178Z,4.04
2019-05-15T03:18:00.312Z,4.02
2019-05-15T03:20:29.806Z,4.06
2019-05-15T03:22:59.733Z,4.04
2019-05-15T03:28:34.744Z,4.16
2019-05-15T03:31:22.398Z,4.09
2019-05-15T03:33:36.323Z,4.03
2019-05-15T03:36:03.838Z,4.10
2019-05-15T03:38:32.382Z,3.99
2019-05-15T03:41:00.817Z,4.04
2019-05-15T03:43:29.512Z,4.01
2019-05-15T03:46:01.637Z,3.95
2019-05-15T03:48:29.056Z,3.89
2019-05-15T03:50:59.753Z,3.90
2019-05-15T03:53:29.918Z,3.93
2019-05-15T03:55:58.898Z,4.02
2019-05-15T03:58:28.878Z,4.11
2019-05-15T04:01:00.201Z,4.07
2019-05-15T04:03:30.112Z,4.06
2019-05-15T04:06:00.581Z,4.08
2019-05-15T04:08:29.926Z,4.08
2019-05-15T04:10:59.617Z,4.10
2019-05-15T04:13:30.078Z,4.06
2019-05-15T04:15:59.462Z,4.12
2019-05-15T04:18:29.052Z,4.15
2019-05-15T04:21:00.223Z,4.11
2019-05-15T04:23:30.071Z,4.08
2019-05-15T04:25:59.035Z,4.14
2019-05-15T04:28:29.459Z,4.07
2019-05-15T04:30:59.587Z,4.06
2019-05-15T04:33:29.428Z,4.11
2019-05-15T04:35:58.981Z,4.16
2019-05-15T04:38:29.180Z,4.16
2019-05-15T04:40:59.086Z,4.22
2019-05-15T04:43:30.147Z,4.29
2019-05-15T04:45:59.110Z,4.36
2019-05-15T04:48:28.991Z,4.42
2019-05-15T04:50:58.862Z,4.52
2019-05-15T04:53:29.512Z,4.64
2019-05-15T04:55:59.818Z,4.61
2019-05-15T04:58:29.626Z,4.68
2019-05-15T05:00:59.897Z,4.64
2019-05-15T05:03:29.538Z,4.61
2019-05-15T05:05:59.063Z,4.63
2019-05-15T05:08:29.217Z,4.78
2019-05-15T05:10:59.181Z,4.78
2019-05-15T05:13:28.693Z,4.91
2019-05-15T05:15:58.691Z,5.08
2019-05-15T05:18:29.781Z,5.12
2019-05-15T05:20:57.847Z,5.33
2019-05-15T05:23:28.191Z,5.51
2019-05-15T05:25:58.138Z,5.74
2019-05-15T05:28:28.980Z,5.93
2019-05-15T05:30:58.737Z,6.16
2019-05-15T05:33:28.651Z,6.48
2019-05-15T05:35:58.312Z,6.77
2019-05-15T05:38:28.125Z,7.10
2019-05-15T05:40:58.723Z,7.53
2019-05-15T05:43:27.084Z,7.76
2019-05-15T05:45:55.503Z,8.02
2019-05-15T05:48:23.911Z,8.18
2019-05-15T05:50:52.425Z,8.36
2019-05-15T05:53:21.489Z,8.48
2019-05-15T05:55:53.221Z,8.64
2019-05-15T05:58:20.345Z,8.79
2019-05-15T06:00:49.440Z,9.11
2019-05-15T06:03:19.553Z,9.45
2019-05-15T06:05:49.456Z,9.61
2019-05-15T06:08:19.447Z,9.86
2019-05-15T06:10:49.574Z,10.11
2019-05-15T06:13:18.650Z,10.27
2019-05-15T06:15:48.791Z,10.30
2019-05-15T06:18:19.745Z,10.39
2019-05-15T06:20:49.454Z,10.51
2019-05-15T06:23:23.563Z,10.65
2019-05-15T06:25:49.094Z,10.78
2019-05-15T06:28:19.535Z,10.94
2019-05-15T06:30:48.608Z,11.08
2019-05-15T06:33:18.744Z,11.22
2019-05-15T06:35:49.022Z,11.42
2019-05-15T06:38:19.396Z,11.52
2019-05-15T06:40:48.786Z,11.48
2019-05-15T06:43:19.272Z,11.49
2019-05-15T06:45:48.744Z,11.58
2019-05-15T06:48:18.322Z,11.74
2019-05-15T06:50:48.943Z,11.86
2019-05-15T06:53:19.236Z,11.91
2019-05-15T06:55:48.624Z,12.04
2019-05-15T06:58:19.175Z,12.04
2019-05-15T07:00:48.757Z,12.12
2019-05-15T07:03:24.797Z,12.12
2019-05-15T07:05:50.526Z,12.23
2019-05-15T07:08:18.430Z,12.39
2019-05-15T07:10:48.771Z,12.55
2019-05-15T07:13:18.235Z,12.77
2019-05-15T07:15:49.620Z,12.86
2019-05-15T07:18:19.722Z,12.93
2019-05-15T07:20:48.831Z,13.15
2019-05-15T07:23:18.852Z,13.33
2019-05-15T07:25:49.828Z,13.13
2019-05-15T07:28:18.189Z,13.62
2019-05-15T07:30:49.467Z,13.97
2019-05-15T07:33:27.943Z,14.27
2019-05-15T07:35:49.214Z,14.41
2019-05-15T07:38:18.499Z,14.53
2019-05-15T07:40:54.279Z,14.85
2019-05-15T07:43:18.149Z,14.89
2019-05-15T07:45:53.307Z,14.92
2019-05-15T07:48:18.777Z,14.69
2019-05-15T07:50:49.646Z,14.66
2019-05-15T07:53:19.757Z,14.44
2019-05-15T07:55:50.228Z,14.57
2019-05-15T07:58:21.255Z,14.80
2019-05-15T08:00:49.364Z,14.77
2019-05-15T08:03:18.547Z,15.06
2019-05-15T08:05:58.224Z,15.42
2019-05-15T08:08:18.672Z,15.49
2019-05-15T08:10:48.969Z,15.78
2019-05-15T08:13:18.507Z,15.85
2019-05-15T08:15:48.756Z,15.93
2019-05-15T08:18:18.248Z,15.90
2019-05-15T08:20:49.168Z,15.84
2019-05-15T08:23:19.246Z,16.07
2019-05-15T08:26:05.743Z,16.16
2019-05-15T08:28:19.051Z,16.31
2019-05-15T08:30:49.522Z,16.36
2019-05-15T08:33:18.804Z,16.52
2019-05-15T08:35:51.348Z,16.29
2019-05-15T08:38:18.376Z,16.39
2019-05-15T08:40:48.988Z,16.42
2019-05-15T08:43:18.619Z,16.60
2019-05-15T08:45:49.567Z,16.74
2019-05-15T08:48:18.457Z,16.52
2019-05-15T08:50:48.677Z,16.74
2019-05-15T08:53:19.307Z,17.03
2019-05-15T08:55:48.257Z,16.92
2019-05-15T08:58:20.295Z,17.08
2019-05-15T09:00:51.796Z,17.32
2019-05-15T09:03:18.282Z,17.74
2019-05-15T09:05:48.467Z,17.93
2019-05-15T09:08:19.314Z,18.20
2019-05-15T09:10:49.879Z,18.41
2019-05-15T09:13:18.872Z,18.42
2019-05-15T09:15:48.373Z,18.31
2019-05-15T09:18:19.952Z,18.47
2019-05-15T09:20:49.153Z,18.59
2019-05-15T09:23:19.361Z,17.88
2019-05-15T09:25:49.202Z,18.08
2019-05-15T09:28:18.906Z,18.49
2019-05-15T09:30:48.420Z,18.36
2019-05-15T09:33:19.583Z,18.23
2019-05-15T09:35:48.975Z,18.28
2019-05-15T09:38:18.504Z,18.10
2019-05-15T09:40:50.435Z,18.03
2019-05-15T09:43:18.162Z,18.06
2019-05-15T09:45:49.282Z,18.05
2019-05-15T09:48:19.878Z,18.42
2019-05-15T09:50:49.352Z,18.49
2019-05-15T09:53:18.899Z,17.96
2019-05-15T09:55:49.421Z,18.09
2019-05-15T09:58:20.227Z,18.55
2019-05-15T10:00:51.791Z,18.42
2019-05-15T10:03:19.252Z,18.49
2019-05-15T10:05:48.417Z,18.88
2019-05-15T10:08:17.078Z,18.33
2019-05-15T10:10:45.511Z,18.23
2019-05-15T10:13:13.921Z,18.59
2019-05-15T10:15:42.324Z,19.07
2019-05-15T10:18:10.754Z,19.33
2019-05-15T10:20:39.171Z,19.50
2019-05-15T10:23:08.835Z,19.40
2019-05-15T10:25:38.895Z,19.56
2019-05-15T10:28:09.722Z,19.83
2019-05-15T10:30:39.460Z,20.05
2019-05-15T10:33:08.670Z,20.09
2019-05-15T10:35:39.346Z,19.52
2019-05-15T10:38:08.856Z,19.19
2019-05-15T10:40:41.059Z,19.03
2019-05-15T10:43:09.020Z,18.55
2019-05-15T10:45:42.222Z,18.78
2019-05-15T10:48:09.467Z,18.88
2019-05-15T10:50:38.785Z,19.06
2019-05-15T10:53:10.906Z,19.51
2019-05-15T10:55:39.430Z,19.76
2019-05-15T10:58:14.113Z,20.10
2019-05-15T11:00:38.252Z,19.64
2019-05-15T11:03:08.853Z,20.12
2019-05-15T11:05:44.881Z,20.36
2019-05-15T11:08:08.343Z,20.24
2019-05-15T11:10:38.678Z,20.34
2019-05-15T11:13:08.984Z,20.18
2019-05-15T11:15:40.456Z,19.36
2019-05-15T11:18:09.296Z,19.42
2019-05-15T11:20:40.855Z,19.30
2019-05-15T11:23:09.759Z,19.52
2019-05-15T11:25:38.411Z,19.77
2019-05-15T11:28:08.182Z,20.14
2019-05-15T11:30:39.397Z,20.42
2019-05-15T11:33:09.624Z,20.66
2019-05-15T11:35:40.765Z,20.87
2019-05-15T11:38:10.039Z,20.92
2019-05-15T11:40:38.885Z,20.84
2019-05-15T11:43:08.522Z,20.51
2019-05-15T11:45:38.923Z,20.65
2019-05-15T11:48:08.995Z,20.70
2019-05-15T11:50:40.030Z,20.77
2019-05-15T11:53:08.713Z,20.77
2019-05-15T11:55:38.736Z,20.78
2019-05-15T11:58:09.382Z,20.72
2019-05-15T12:00:38.361Z,20.74
2019-05-15T12:03:08.923Z,20.72
2019-05-15T12:05:38.557Z,20.76
2019-05-15T12:08:09.081Z,20.28
2019-05-15T12:10:38.987Z,20.04
2019-05-15T12:13:09.771Z,20.15
2019-05-15T12:15:38.911Z,20.60
2019-05-15T12:18:08.774Z,21.21
2019-05-15T12:20:38.938Z,21.24
2019-05-15T12:23:08.984Z,21.16
2019-05-15T12:25:39.585Z,21.24
2019-05-15T12:28:09.550Z,21.15
2019-05-15T12:30:40.238Z,21.23
2019-05-15T12:35:40.085Z,21.07
2019-05-15T12:37:59.047Z,21.10
2019-05-15T12:38:10.041Z,21.27
2019-05-15T13:00:40.289Z,21.52
2019-05-15T13:03:09.171Z,21.32
2019-05-15T13:05:39.159Z,20.62
2019-05-15T13:08:08.427Z,20.98
2019-05-15T13:10:38.346Z,21.29
2019-05-15T13:13:09.386Z,21.45
2019-05-15T13:15:40.872Z,21.42
2019-05-15T13:18:13.983Z,21.46
2019-05-15T13:20:38.376Z,21.43
2019-05-15T13:23:08.218Z,21.55
2019-05-15T13:25:39.319Z,20.63
2019-05-15T13:28:08.997Z,20.39
2019-05-15T13:30:40.837Z,20.80
2019-05-15T13:33:09.943Z,20.94
2019-05-15T13:35:38.140Z,21.09
2019-05-15T13:38:09.492Z,20.60
2019-05-15T13:40:38.922Z,20.78
2019-05-15T13:43:08.358Z,20.61
2019-05-15T13:45:38.631Z,20.66
2019-05-15T13:48:08.982Z,20.61
2019-05-15T13:50:40.415Z,20.65
2019-05-15T13:53:10.418Z,20.32
2019-05-15T13:55:42.383Z,20.19
2019-05-15T13:58:09.012Z,20.34
2019-05-15T14:00:38.924Z,20.18
2019-05-15T14:03:09.042Z,19.84
2019-05-15T14:05:38.424Z,20.12
2019-05-15T14:08:07.674Z,20.39
2019-05-15T14:10:38.293Z,20.52
2019-05-15T14:13:06.460Z,20.29
2019-05-15T14:15:35.027Z,20.22
2019-05-15T14:18:03.520Z,20.04
2019-05-15T14:20:32.013Z,20.16
2019-05-15T14:23:00.407Z,19.90
2019-05-15T14:25:28.927Z,19.94
2019-05-15T14:27:59.460Z,19.99
2019-05-15T14:30:29.259Z,19.88
2019-05-15T14:32:59.763Z,19.82
2019-05-15T14:35:27.989Z,19.90
2019-05-15T14:38:03.587Z,19.92
2019-05-15T14:40:26.602Z,19.72
2019-05-15T14:42:55.030Z,19.63
2019-05-15T14:45:23.686Z,19.86
2019-05-15T14:47:52.105Z,19.79
2019-05-15T14:50:20.599Z,20.06
2019-05-15T14:52:48.998Z,20.21
2019-05-15T14:55:17.479Z,20.00
2019-05-15T14:57:48.493Z,19.60
2019-05-15T15:00:19.834Z,19.88
2019-05-15T15:02:49.466Z,19.90
2019-05-15T15:05:21.545Z,19.74
2019-05-15T15:07:49.208Z,19.76
2019-05-15T15:10:20.076Z,19.63
2019-05-15T15:12:49.911Z,19.85
2019-05-15T15:15:18.828Z,19.81
2019-05-15T15:17:49.347Z,19.79
2019-05-15T15:20:17.917Z,19.59
2019-05-15T15:22:48.543Z,19.41
2019-05-15T15:25:16.703Z,19.31
2019-05-15T15:27:45.180Z,19.49
2019-05-15T15:30:15.808Z,19.55
2019-05-15T15:32:44.145Z,19.39
2019-05-15T15:35:13.582Z,19.64
2019-05-15T15:37:41.981Z,19.58
2019-05-15T15:40:10.613Z,19.28
2019-05-15T15:42:39.674Z,19.32
2019-05-15T15:45:09.507Z,19.24
2019-05-15T15:47:39.005Z,18.96
2019-05-15T15:50:09.440Z,18.86
2019-05-15T15:52:38.726Z,19.14
2019-05-15T15:55:09.310Z,19.15
2019-05-15T15:57:39.742Z,19.11
2019-05-15T16:00:09.879Z,18.84
2019-05-15T16:02:41.006Z,18.70
2019-05-15T16:05:09.890Z,18.66
2019-05-15T16:07:38.750Z,18.43
2019-05-15T16:10:08.705Z,18.42
2019-05-15T16:12:38.733Z,18.34
2019-05-15T16:15:09.310Z,18.01
2019-05-15T16:17:38.384Z,18.21
2019-05-15T16:20:09.426Z,18.34
2019-05-15T16:22:38.308Z,18.30
2019-05-15T16:25:10.013Z,18.00
2019-05-15T16:27:38.696Z,17.73
2019-05-15T16:30:08.793Z,17.82
2019-05-15T16:32:38.760Z,18.04
2019-05-15T16:35:08.604Z,18.22
2019-05-15T16:37:38.996Z,18.28
2019-05-15T16:40:07.945Z,18.34
2019-05-15T16:42:38.624Z,18.35
2019-05-15T16:45:09.619Z,18.36
2019-05-15T16:47:38.852Z,18.38
2019-05-15T16:50:09.041Z,18.16
2019-05-15T16:52:38.730Z,18.02
2019-05-15T16:55:09.633Z,17.88
2019-05-15T16:57:38.908Z,17.96
2019-05-15T17:00:10.101Z,17.88
2019-05-15T17:02:39.463Z,17.80
2019-05-15T17:05:09.369Z,17.70
2019-05-15T17:07:38.783Z,17.57
2019-05-15T17:10:08.615Z,17.40
2019-05-15T17:12:38.620Z,17.16
2019-05-15T17:15:09.078Z,17.03
2019-05-15T17:17:38.724Z,16.86
2019-05-15T17:20:10.219Z,16.77
2019-05-15T17:22:38.818Z,16.72
2019-05-15T17:25:10.215Z,16.46
2019-05-15T17:27:38.655Z,16.22
2019-05-15T17:30:09.598Z,15.94
2019-05-15T17:32:39.644Z,15.87
2019-05-15T17:35:09.922Z,15.60
2019-05-15T17:37:38.841Z,15.54
2019-05-15T17:40:08.006Z,15.54
2019-05-15T17:42:39.066Z,15.53
2019-05-15T17:45:09.069Z,15.41
2019-05-15T17:47:38.779Z,15.39
2019-05-15T17:50:08.605Z,15.34
2019-05-15T17:52:38.840Z,15.36
2019-05-15T17:55:07.746Z,15.38
2019-05-15T17:57:38.801Z,15.37
2019-05-15T18:00:12.068Z,15.30
2019-05-15T18:02:38.657Z,15.12
2019-05-15T18:05:08.885Z,15.07
2019-05-15T18:07:39.033Z,15.02
2019-05-15T18:10:08.557Z,14.86
2019-05-15T18:12:38.949Z,14.82
2019-05-15T18:15:09.174Z,14.77
2019-05-15T18:17:39.246Z,14.65
2019-05-15T18:20:10.057Z,14.56
2019-05-15T18:22:38.704Z,14.40
2019-05-15T18:25:09.100Z,14.33
2019-05-15T18:27:38.844Z,14.21
2019-05-15T18:30:09.335Z,14.05
2019-05-15T18:32:39.220Z,13.93
2019-05-15T18:35:08.461Z,13.82
2019-05-15T18:37:39.395Z,13.73
2019-05-15T18:40:09.792Z,13.54
2019-05-15T18:42:39.510Z,13.53
2019-05-15T18:45:08.889Z,13.48
2019-05-15T18:47:39.056Z,13.40
2019-05-15T18:50:13.293Z,13.36
2019-05-15T18:52:39.207Z,13.29
2019-05-15T18:55:08.270Z,13.20
2019-05-15T18:57:38.598Z,12.98
2019-05-15T19:00:08.947Z,12.97
2019-05-15T19:02:39.235Z,12.81
2019-05-15T19:05:08.380Z,12.66
2019-05-15T19:07:38.414Z,12.56
2019-05-15T19:10:08.627Z,12.47
2019-05-15T19:12:37.894Z,12.42
2019-05-15T19:15:09.366Z,12.27
2019-05-15T19:17:38.898Z,12.19
2019-05-15T19:20:08.550Z,12.17
2019-05-15T19:22:40.649Z,12.07
2019-05-15T19:25:08.782Z,12.03
2019-05-15T19:27:39.342Z,11.99
2019-05-15T19:30:09.072Z,11.90
2019-05-15T19:32:38.860Z,11.83
2019-05-15T19:35:08.164Z,11.80
2019-05-15T19:37:38.467Z,11.67
2019-05-15T19:40:08.676Z,11.63
2019-05-15T19:42:38.395Z,11.43
2019-05-15T19:45:09.651Z,11.43
2019-05-15T19:47:38.977Z,11.34
2019-05-15T19:50:09.520Z,11.23
2019-05-15T19:52:38.342Z,11.25
2019-05-15T19:55:08.856Z,11.20
2019-05-15T19:57:38.946Z,11.16
2019-05-15T20:03:47.266Z,10.96
2019-05-15T20:06:04.623Z,10.88
2019-05-15T20:08:33.014Z,10.83
2019-05-15T20:11:01.447Z,10.86
2019-05-15T20:13:30.137Z,10.80
2019-05-15T20:15:58.593Z,10.90
2019-05-15T20:18:27.868Z,10.94
2019-05-15T20:20:58.492Z,10.92
2019-05-15T20:23:28.738Z,10.82
2019-05-15T20:25:57.670Z,10.82
2019-05-15T20:28:29.212Z,10.84
2019-05-15T20:30:58.675Z,10.73
2019-05-15T20:33:28.548Z,10.73
2019-05-15T20:35:58.881Z,10.69
2019-05-15T20:38:28.537Z,10.68
2019-05-15T20:40:59.803Z,10.68
2019-05-15T20:43:27.260Z,10.67
2019-05-15T20:45:57.757Z,10.64
2019-05-15T20:48:28.721Z,10.64
2019-05-15T20:50:58.746Z,10.64
2019-05-15T20:53:28.571Z,10.57
2019-05-15T20:55:58.881Z,10.57
2019-05-15T20:58:27.214Z,10.58
2019-05-15T21:00:58.867Z,10.57
2019-05-15T21:03:25.913Z,10.57
2019-05-15T21:05:54.308Z,10.51
2019-05-15T21:08:22.706Z,10.47
2019-05-15T21:10:51.112Z,10.47
2019-05-15T21:13:19.545Z,10.37
2019-05-15T21:15:48.575Z,10.24
2019-05-15T21:18:21.253Z,10.24
2019-05-15T21:20:48.314Z,10.16
2019-05-15T21:23:18.236Z,9.99
2019-05-15T21:25:48.511Z,9.99
2019-05-15T21:28:17.122Z,9.91
2019-05-15T21:30:45.519Z,9.90
2019-05-15T21:33:13.935Z,9.81
2019-05-15T21:35:42.343Z,9.81
2019-05-15T21:38:10.996Z,9.72
2019-05-15T21:40:39.387Z,9.72
2019-05-15T21:43:08.761Z,9.67
2019-05-15T21:45:37.682Z,9.62
2019-05-15T21:48:09.059Z,9.51
2019-05-15T21:50:38.849Z,9.48
2019-05-15T21:53:07.432Z,9.42
2019-05-15T21:55:36.066Z,9.39
2019-05-15T21:58:04.523Z,9.28
2019-05-15T22:00:38.276Z,9.26
2019-05-15T22:03:07.202Z,9.25
2019-05-15T22:05:35.746Z,9.20
2019-05-15T22:08:04.416Z,9.16
2019-05-15T22:10:33.470Z,9.15
2019-05-15T22:13:02.864Z,9.08
2019-05-15T22:15:31.461Z,9.10
2019-05-15T22:17:59.949Z,9.05
2019-05-15T22:20:30.545Z,8.97
2019-05-15T22:22:59.581Z,8.89
2019-05-15T22:25:29.039Z,8.81
2019-05-15T22:27:58.074Z,8.73
2019-05-15T22:30:30.044Z,8.65
2019-05-15T22:32:58.734Z,8.61
2019-05-15T22:35:29.419Z,8.54
2019-05-15T22:37:58.437Z,8.52
2019-05-15T22:40:28.999Z,8.49
2019-05-15T22:42:59.096Z,8.49
2019-05-15T22:45:28.583Z,8.36
2019-05-15T22:47:58.608Z,8.27
2019-05-15T22:50:28.113Z,8.18
2019-05-15T22:52:58.699Z,8.12
2019-05-15T22:55:28.885Z,8.10
2019-05-15T22:57:58.681Z,8.00
2019-05-15T23:00:28.938Z,8.00
2019-05-15T23:02:58.112Z,7.94
2019-05-15T23:05:29.356Z,7.90
2019-05-15T23:07:59.015Z,7.85
2019-05-15T23:10:29.150Z,7.71
2019-05-15T23:12:58.120Z,7.62
2019-05-15T23:15:28.187Z,7.58
2019-05-15T23:17:58.188Z,7.60
2019-05-15T23:20:28.628Z,7.61
2019-05-15T23:22:58.444Z,7.61
2019-05-15T23:25:28.874Z,7.62
2019-05-15T23:27:58.155Z,7.57
2019-05-15T23:30:28.894Z,7.57
2019-05-15T23:32:58.052Z,7.51
2019-05-15T23:35:35.513Z,7.45
2019-05-15T23:37:58.118Z,7.34
2019-05-15T23:40:28.840Z,7.25
2019-05-15T23:42:56.994Z,7.16
2019-05-15T23:45:25.446Z,7.09
2019-05-15T23:47:54.120Z,7.12
2019-05-15T23:50:22.540Z,7.05
2019-05-15T23:52:53.294Z,6.95
2019-05-15T23:55:21.673Z,6.87
2019-05-15T23:57:52.791Z,6.82
